Time;durP1;ratioP1;P1;durP2;ratioP2;P2;SDS_P1;SDS_P2;PMS_P1;PMS_P2;Temp;Humidity;BMP_temperature;BMP_pressure;BME280_temperature;BME280_humidity;BME280_pressure;Samples;Min_cycle;Max_cycle;Signal;HPM_P1;HPM_P2
2023/02/28 00:01:08;;;;;;;7.73;4.43;;;;;;;1.81;100.00;103286.00;4989814;28;20202;-69
2023/02/28 00:03:34;;;;;;;8.80;4.27;;;;;;;1.76;100.00;103288.13;4989391;28;20204;-70
2023/02/28 00:06:02;;;;;;;6.67;4.27;;;;;;;1.74;100.00;103292.13;4990406;28;20211;-67
2023/02/28 00:08:28;;;;;;;7.20;4.23;;;;;;;1.66;100.00;103292.16;4992370;28;20192;-71
2023/02/28 00:10:53;;;;;;;7.77;4.30;;;;;;;1.59;100.00;103283.13;4990835;28;20878;-69
2023/02/28 00:13:18;;;;;;;12.90;4.53;;;;;;;1.55;100.00;103287.72;4990134;28;20219;-68
2023/02/28 00:15:45;;;;;;;8.20;4.80;;;;;;;1.38;100.00;103283.59;4994309;28;20187;-70
2023/02/28 00:18:11;;;;;;;7.20;4.33;;;;;;;1.37;100.00;103284.34;4989805;28;20559;-69
2023/02/28 00:20:37;;;;;;;8.20;4.23;;;;;;;1.33;100.00;103291.50;4993390;28;20232;-70
2023/02/28 00:23:03;;;;;;;6.03;4.50;;;;;;;1.28;100.00;103292.69;4985755;28;20211;-70
2023/02/28 00:25:28;;;;;;;10.40;4.30;;;;;;;1.19;100.00;103287.66;4993953;28;20219;-70
2023/02/28 00:27:53;;;;;;;9.07;4.73;;;;;;;1.12;100.00;103290.34;4993343;28;20195;-68
2023/02/28 00:30:22;;;;;;;8.53;4.50;;;;;;;1.05;100.00;103290.47;4991006;28;20202;-70
2023/02/28 00:32:48;;;;;;;7.23;4.97;;;;;;;0.93;100.00;103290.94;4997078;28;20223;-70
2023/02/28 00:35:14;;;;;;;7.77;4.37;;;;;;;0.97;100.00;103295.53;4991509;28;20180;-69
2023/02/28 00:37:40;;;;;;;8.23;4.30;;;;;;;0.95;100.00;103299.53;4994726;28;20225;-70
2023/02/28 00:40:07;;;;;;;10.93;4.77;;;;;;;0.95;100.00;103290.34;4990484;28;20223;-68
2023/02/28 00:42:36;;;;;;;9.80;4.93;;;;;;;0.97;100.00;103295.53;4995125;28;20215;-70
2023/02/28 00:45:04;;;;;;;8.90;4.50;;;;;;;0.89;100.00;103294.81;4984179;28;20223;-69
2023/02/28 00:47:30;;;;;;;9.40;4.57;;;;;;;0.79;100.00;103296.28;4995190;28;20199;-70
2023/02/28 00:49:55;;;;;;;8.83;4.93;;;;;;;0.69;100.00;103307.06;4985952;28;20199;-70
2023/02/28 00:52:21;;;;;;;9.20;5.07;;;;;;;0.68;100.00;103301.91;4980536;28;20257;-70
2023/02/28 00:54:46;;;;;;;10.10;5.50;;;;;;;0.65;100.00;103307.53;4990387;28;20775;-69
2023/02/28 00:57:13;;;;;;;7.30;5.10;;;;;;;0.62;100.00;103314.78;4989583;28;20239;-70
2023/02/28 00:59:39;;;;;;;7.50;5.20;;;;;;;0.66;100.00;103315.97;4987509;28;20611;-68
2023/02/28 01:02:05;;;;;;;8.20;5.00;;;;;;;0.63;100.00;103313.19;4991602;28;20211;-70
2023/02/28 01:04:30;;;;;;;8.13;4.67;;;;;;;0.55;100.00;103314.91;4988926;28;20265;-70
2023/02/28 01:06:59;;;;;;;7.90;4.90;;;;;;;0.45;100.00;103313.88;4990579;28;20623;-69
2023/02/28 01:09:25;;;;;;;7.70;5.23;;;;;;;0.38;100.00;103321.56;4989439;28;20275;-70
2023/02/28 01:11:50;;;;;;;9.50;4.87;;;;;;;0.32;100.00;103322.72;4973130;28;20631;-70
2023/02/28 01:14:17;;;;;;;10.23;5.40;;;;;;;0.28;100.00;103318.13;4989036;28;20192;-70
2023/02/28 01:16:44;;;;;;;9.47;5.00;;;;;;;0.28;100.00;103318.88;4991747;28;20194;-70
2023/02/28 01:19:10;;;;;;;9.27;4.87;;;;;;;0.29;100.00;103314.84;4971046;28;20195;-69
2023/02/28 01:21:37;;;;;;;12.53;5.20;;;;;;;0.28;100.00;103318.88;4994068;28;20239;-69
2023/02/28 01:24:04;;;;;;;10.03;4.73;;;;;;;0.27;100.00;103317.09;4987779;28;20657;-70
2023/02/28 01:26:30;;;;;;;8.27;4.60;;;;;;;0.23;100.00;103311.75;4991555;28;20282;-69
2023/02/28 01:28:56;;;;;;;6.93;4.60;;;;;;;0.20;100.00;103315.59;4992454;28;20203;-69
2023/02/28 01:31:22;;;;;;;7.40;4.60;;;;;;;0.14;100.00;103315.00;4995157;28;20199;-68
2023/02/28 01:33:48;;;;;;;8.87;4.93;;;;;;;0.10;100.00;103318.81;4993634;28;20186;-69
2023/02/28 01:36:19;;;;;;;9.13;4.93;;;;;;;0.08;100.00;103310.97;4989945;28;20199;-69
2023/02/28 01:38:45;;;;;;;7.20;4.80;;;;;;;0.04;100.00;103307.22;4983786;28;20195;-69
2023/02/28 01:41:26;;;;;;;11.77;5.67;;;;;;;0.00;100.00;103312.72;4980950;28;20312;-67
2023/02/28 01:44:34;;;;;;;9.97;4.80;;;;;;;-0.05;100.00;103317.28;4996760;28;20197;-70
2023/02/28 01:46:59;;;;;;;8.03;5.30;;;;;;;-0.07;100.00;103313.72;4977210;28;20547;-69
2023/02/28 01:49:25;;;;;;;10.37;5.50;;;;;;;-0.13;100.00;103308.03;4971580;28;21415;-69
2023/02/28 01:51:56;;;;;;;8.97;5.20;;;;;;;-0.16;100.00;103310.28;4988006;28;20210;-69
2023/02/28 01:54:30;;;;;;;9.37;5.53;;;;;;;-0.15;100.00;103314.56;5001061;28;20439;-70
2023/02/28 01:57:01;;;;;;;10.13;5.60;;;;;;;-0.19;100.00;103312.47;4992138;28;20465;-69
2023/02/28 01:59:35;;;;;;;10.10;5.73;;;;;;;-0.25;100.00;103309.34;4990860;28;20461;-69
2023/02/28 02:02:02;;;;;;;10.97;6.23;;;;;;;-0.32;100.00;103314.47;4987533;28;20462;-69
2023/02/28 02:04:36;;;;;;;7.67;5.60;;;;;;;-0.33;100.00;103315.22;4992667;28;20478;-70
2023/02/28 02:07:03;;;;;;;10.63;6.60;;;;;;;-0.35;100.00;103313.28;4987019;28;20437;-70
2023/02/28 02:09:28;;;;;;;11.67;6.40;;;;;;;-0.43;100.00;103304.94;4990478;28;20450;-70
2023/02/28 02:11:55;;;;;;;9.77;5.97;;;;;;;-0.43;100.00;103314.13;4988916;28;20464;-71
2023/02/28 02:14:31;;;;;;;12.10;6.50;;;;;;;-0.46;100.00;103311.31;4994239;28;20264;-71
2023/02/28 02:17:38;;;;;;;12.33;6.50;;;;;;;-0.50;100.00;103312.59;4990849;28;20453;-67
2023/02/28 02:20:36;;;;;;;9.60;6.33;;;;;;;-0.56;100.00;103308.56;4997027;28;20537;-70
2023/02/28 02:23:46;;;;;;;10.03;6.97;;;;;;;-0.57;100.00;103305.16;4995593;28;20505;-70
2023/02/28 02:26:32;;;;;;;13.43;6.67;;;;;;;-0.56;100.00;103306.03;4999463;28;21107;-69
2023/02/28 02:29:35;;;;;;;11.87;6.60;;;;;;;-0.54;100.00;103307.97;4997852;28;20569;-68
2023/02/28 02:32:34;;;;;;;15.13;6.80;;;;;;;-0.60;100.00;103302.31;4986207;28;20456;-71
2023/02/28 02:35:05;;;;;;;12.17;6.77;;;;;;;-0.63;100.00;103303.66;4988742;28;20807;-70
2023/02/28 02:37:46;;;;;;;11.13;6.97;;;;;;;-0.66;100.00;103306.75;4988807;28;20504;-71
2023/02/28 02:40:22;;;;;;;10.60;6.83;;;;;;;-0.65;100.00;103308.50;4987472;28;20442;-70
2023/02/28 02:43:09;;;;;;;12.13;6.33;;;;;;;-0.72;100.00;103311.09;4987542;28;20480;-70
2023/02/28 02:45:41;;;;;;;10.00;6.40;;;;;;;-0.76;100.00;103309.03;4992708;28;20481;-69
2023/02/28 02:48:12;;;;;;;11.07;7.07;;;;;;;-0.82;100.00;103310.91;4992710;28;20446;-69
2023/02/28 02:50:44;;;;;;;12.53;6.63;;;;;;;-0.77;100.00;103309.75;4990618;28;20484;-70
2023/02/28 02:53:12;;;;;;;13.93;7.47;;;;;;;-0.82;100.00;103313.41;4992288;28;20466;-69
2023/02/28 02:55:47;;;;;;;10.13;6.40;;;;;;;-0.90;100.00;103303.31;4994588;28;20438;-66
2023/02/28 02:58:18;;;;;;;10.17;6.87;;;;;;;-0.93;100.00;103301.38;4970346;28;20438;-68
2023/02/28 03:00:50;;;;;;;12.23;6.70;;;;;;;-1.05;100.00;103310.13;4992358;28;20468;-70
2023/02/28 03:03:20;;;;;;;9.83;6.57;;;;;;;-1.09;100.00;103309.66;4993465;28;20461;-70
2023/02/28 03:05:50;;;;;;;12.50;7.40;;;;;;;-1.14;100.00;103309.16;4991085;28;20580;-70
2023/02/28 03:08:16;;;;;;;10.10;6.60;;;;;;;-1.14;100.00;103311.69;4972691;28;20960;-70
2023/02/28 03:10:44;;;;;;;11.13;6.40;;;;;;;-1.24;100.00;103303.91;4996273;28;20448;-71
2023/02/28 03:13:58;;;;;;;13.13;7.23;;;;;;;-1.22;100.00;103294.03;4990443;28;20219;-68
2023/02/28 03:16:43;;;;;;;10.43;6.03;;;;;;;-1.22;100.00;103302.47;5004615;28;20468;-69
2023/02/28 03:19:20;;;;;;;9.30;6.37;;;;;;;-1.27;100.00;103310.25;4996582;28;20450;-67
2023/02/28 03:22:01;;;;;;;12.53;7.07;;;;;;;-1.29;100.00;103309.19;4996039;28;20466;-69
2023/02/28 03:24:56;;;;;;;13.73;6.53;;;;;;;-1.34;100.00;103312.81;4974972;28;20569;-70
2023/02/28 03:27:34;;;;;;;11.63;6.10;;;;;;;-1.35;100.00;103311.03;4988690;28;20491;-70
2023/02/28 03:30:09;;;;;;;9.53;6.23;;;;;;;-1.40;100.00;103302.13;4991236;28;20470;-69
2023/02/28 03:33:04;;;;;;;13.20;6.40;;;;;;;-1.38;100.00;103310.75;4985597;28;20462;-70
2023/02/28 03:35:39;;;;;;;8.37;5.60;;;;;;;-1.47;100.00;103314.78;4995116;28;20495;-69
2023/02/28 03:38:18;;;;;;;8.67;6.47;;;;;;;-1.49;100.00;103318.72;4983709;28;20450;-68
2023/02/28 03:40:49;;;;;;;8.33;5.77;;;;;;;-1.55;100.00;103318.09;4989924;28;20459;-70
2023/02/28 03:43:24;;;;;;;11.90;6.33;;;;;;;-1.57;100.00;103322.94;4983832;28;20514;-70
2023/02/28 03:45:51;;;;;;;9.57;6.20;;;;;;;-1.61;100.00;103317.44;4991617;28;20476;-70
2023/02/28 03:48:23;;;;;;;10.10;6.73;;;;;;;-1.65;100.00;103325.38;4983305;28;20574;-70
2023/02/28 03:50:53;;;;;;;9.67;5.80;;;;;;;-1.66;100.00;103321.97;5001068;28;20504;-69
2023/02/28 03:53:25;;;;;;;9.70;6.17;;;;;;;-1.69;100.00;103326.66;4985410;28;21048;-69
2023/02/28 03:55:59;;;;;;;11.97;6.53;;;;;;;-1.70;100.00;103322.34;4994335;28;20505;-70
2023/02/28 03:58:28;;;;;;;9.73;6.40;;;;;;;-1.75;100.00;103327.63;4982821;28;20498;-69
2023/02/28 04:01:07;;;;;;;8.20;5.90;;;;;;;-1.81;100.00;103335.38;4988093;28;20447;-71
2023/02/28 04:03:38;;;;;;;10.67;6.10;;;;;;;-1.83;100.00;103324.28;4990172;28;20978;-70
2023/02/28 04:06:05;;;;;;;9.33;6.10;;;;;;;-1.87;100.00;103319.69;4994905;28;20478;-70
2023/02/28 04:08:31;;;;;;;9.47;6.23;;;;;;;-1.87;100.00;103322.19;4991286;28;20940;-68
2023/02/28 04:11:04;;;;;;;11.73;6.67;;;;;;;-1.86;100.00;103320.53;4996296;28;20447;-69
2023/02/28 04:13:29;;;;;;;9.33;6.23;;;;;;;-1.90;100.00;103328.47;4982397;28;20262;-68
2023/02/28 04:15:55;;;;;;;7.77;5.90;;;;;;;-1.90;100.00;103329.38;4991721;28;20474;-69
2023/02/28 04:18:20;;;;;;;10.97;6.33;;;;;;;-1.93;100.00;103334.03;4988118;28;20222;-69
2023/02/28 04:20:45;;;;;;;7.33;5.77;;;;;;;-1.95;100.00;103332.09;4994571;28;20191;-70
2023/02/28 04:23:11;;;;;;;11.00;6.20;;;;;;;-1.98;100.00;103331.78;4986122;28;20203;-69
2023/02/28 04:25:36;;;;;;;8.70;5.97;;;;;;;-1.98;100.00;103331.78;4988685;28;20211;-70
2023/02/28 04:28:02;;;;;;;12.17;7.37;;;;;;;-1.95;100.00;103334.59;4989528;28;20231;-69
2023/02/28 04:30:27;;;;;;;12.03;7.03;;;;;;;-1.94;100.00;103331.38;4988638;28;20283;-68
2023/02/28 04:32:52;;;;;;;9.13;6.43;;;;;;;-1.94;100.00;103327.25;4990369;28;20234;-70
2023/02/28 04:35:18;;;;;;;10.97;6.63;;;;;;;-1.96;100.00;103320.28;4981290;28;20184;-69
2023/02/28 04:37:43;;;;;;;8.87;6.20;;;;;;;-1.95;100.00;103319.56;4984500;28;20215;-68
2023/02/28 04:40:09;;;;;;;8.80;6.50;;;;;;;-1.98;100.00;103326.78;4982176;28;20287;-70
2023/02/28 04:42:35;;;;;;;10.13;6.67;;;;;;;-2.08;100.00;103316.44;4991130;28;20212;-71
2023/02/28 04:45:04;;;;;;;12.07;6.90;;;;;;;-2.12;100.00;103322.75;4989839;28;20548;-70
2023/02/28 04:47:30;;;;;;;11.13;6.43;;;;;;;-2.19;100.00;103321.91;4987151;28;20805;-68
2023/02/28 04:49:56;;;;;;;9.77;7.13;;;;;;;-2.12;100.00;103330.28;4984224;28;20525;-68
2023/02/28 04:52:21;;;;;;;11.70;7.17;;;;;;;-2.02;100.00;103329.66;4985765;28;20475;-70
2023/02/28 04:54:47;;;;;;;15.90;8.13;;;;;;;-2.00;100.00;103323.19;4986355;28;20200;-70
2023/02/28 04:57:12;;;;;;;13.40;7.83;;;;;;;-2.05;100.00;103325.22;4991090;28;20532;-68
2023/02/28 04:59:38;;;;;;;11.73;8.53;;;;;;;-2.13;100.00;103325.06;4992351;28;20272;-69
2023/02/28 05:02:06;;;;;;;12.20;7.57;;;;;;;-2.21;100.00;103325.88;4993347;28;20604;-69
2023/02/28 05:04:35;;;;;;;12.57;7.33;;;;;;;-2.26;100.00;103339.53;4989098;28;20227;-70
2023/02/28 05:07:02;;;;;;;9.63;7.00;;;;;;;-2.25;100.00;103334.66;4992782;28;20447;-68
2023/02/28 05:09:28;;;;;;;13.13;6.90;;;;;;;-2.29;100.00;103340.06;4983798;28;20555;-69
2023/02/28 05:11:54;;;;;;;11.23;6.87;;;;;;;-2.39;100.00;103339.78;4982566;28;20645;-69
2023/02/28 05:14:20;;;;;;;12.33;7.10;;;;;;;-2.40;100.00;103339.59;4984864;28;20984;-70
2023/02/28 05:16:45;;;;;;;11.07;7.27;;;;;;;-2.47;100.00;103339.66;4993998;28;20195;-68
2023/02/28 05:19:11;;;;;;;11.53;7.20;;;;;;;-2.49;100.00;103337.00;4984645;28;20283;-69
2023/02/28 05:21:36;;;;;;;11.47;8.10;;;;;;;-2.46;100.00;103344.88;4983122;28;20895;-70
2023/02/28 05:24:08;;;;;;;12.63;7.60;;;;;;;-2.47;100.00;103339.66;4975646;28;20196;-69
2023/02/28 05:26:36;;;;;;;13.43;7.63;;;;;;;-2.55;100.00;103348.84;4982021;28;20199;-69
2023/02/28 05:29:02;;;;;;;11.13;7.13;;;;;;;-2.55;100.00;103353.88;4979776;28;21124;-70
2023/02/28 05:31:27;;;;;;;12.93;8.73;;;;;;;-2.51;100.00;103350.09;4986486;28;20549;-69
2023/02/28 05:33:52;;;;;;;14.80;9.13;;;;;;;-2.56;100.00;103351.19;4982365;28;20199;-70
2023/02/28 05:36:18;;;;;;;13.23;7.90;;;;;;;-2.56;100.00;103353.69;4980153;28;20276;-68
2023/02/28 05:38:47;;;;;;;14.40;9.10;;;;;;;-2.58;100.00;103347.63;4982492;28;20224;-68
2023/02/28 05:41:14;;;;;;;16.83;9.07;;;;;;;-2.64;100.00;103349.44;4986116;28;20478;-70
2023/02/28 05:43:39;;;;;;;13.20;8.43;;;;;;;-2.65;100.00;103348.56;4982946;28;20819;-70
2023/02/28 05:46:06;;;;;;;12.87;7.73;;;;;;;-2.68;100.00;103352.31;4975344;28;20478;-70
2023/02/28 05:48:33;;;;;;;14.10;8.70;;;;;;;-2.69;100.00;103353.03;4980619;28;20732;-70
2023/02/28 05:50:58;;;;;;;16.40;8.50;;;;;;;-2.70;100.00;103356.28;4987326;28;20572;-68
2023/02/28 05:53:24;;;;;;;11.37;7.57;;;;;;;-2.74;100.00;103360.06;4997569;28;20477;-70
2023/02/28 05:55:49;;;;;;;13.40;7.67;;;;;;;-2.80;100.00;103353.47;4989926;28;20614;-70
2023/02/28 05:58:15;;;;;;;13.83;8.20;;;;;;;-2.87;100.00;103361.00;4985974;28;20191;-67
2023/02/28 06:00:40;;;;;;;12.70;8.40;;;;;;;-2.86;100.00;103362.78;4989219;28;20200;-70
2023/02/28 06:03:06;;;;;;;11.07;7.43;;;;;;;-2.88;100.00;103360.13;4990917;28;20211;-68
2023/02/28 06:05:31;;;;;;;11.43;7.47;;;;;;;-2.82;100.00;103367.44;4983450;28;20681;-67
2023/02/28 06:07:57;;;;;;;13.37;7.90;;;;;;;-2.88;100.00;103375.16;4985245;28;20196;-69
2023/02/28 06:10:22;;;;;;;11.47;7.50;;;;;;;-2.90;100.00;103369.06;4986765;28;20196;-69
2023/02/28 06:12:48;;;;;;;11.40;7.37;;;;;;;-2.92;100.00;103373.03;4989825;28;20216;-69
2023/02/28 06:15:15;;;;;;;11.43;7.70;;;;;;;-2.89;100.00;103360.84;4987543;28;20275;-68
2023/02/28 06:17:41;;;;;;;12.33;8.47;;;;;;;-2.94;100.00;103369.44;4987616;28;20195;-68
2023/02/28 06:20:08;;;;;;;12.53;8.00;;;;;;;-2.96;100.00;103367.50;4985210;28;20791;-69
2023/02/28 06:22:37;;;;;;;10.87;7.83;;;;;;;-2.98;100.00;103377.38;4989404;28;20477;-67
2023/02/28 06:25:04;;;;;;;11.83;7.37;;;;;;;-2.99;100.00;103378.06;4982053;28;20509;-68
2023/02/28 06:27:30;;;;;;;13.60;7.20;;;;;;;-2.97;100.00;103381.66;4989467;28;20443;-68
2023/02/28 06:29:56;;;;;;;12.57;7.97;;;;;;;-2.98;100.00;103389.88;4983931;28;20502;-68
2023/02/28 06:32:22;;;;;;;11.43;7.27;;;;;;;-2.99;100.00;103388.06;4991609;28;20896;-69
2023/02/28 06:34:47;;;;;;;12.00;7.50;;;;;;;-3.01;100.00;103384.53;4989866;28;20266;-68
2023/02/28 06:37:13;;;;;;;11.13;7.43;;;;;;;-2.97;100.00;103388.25;4985670;28;20679;-67
2023/02/28 06:39:38;;;;;;;9.63;6.93;;;;;;;-2.98;100.00;103386.47;4990095;28;20186;-68
2023/02/28 06:42:04;;;;;;;12.17;8.07;;;;;;;-2.97;100.00;103390.75;4989719;28;20207;-68
2023/02/28 06:44:35;;;;;;;13.97;7.33;;;;;;;-2.93;100.00;103390.41;4987904;28;20215;-69
2023/02/28 06:47:03;;;;;;;14.97;7.47;;;;;;;-2.91;100.00;103394.84;4989229;28;20203;-68
2023/02/28 06:49:32;;;;;;;11.73;7.50;;;;;;;-2.94;100.00;103394.50;4991339;28;20911;-68
2023/02/28 06:51:58;;;;;;;11.17;7.70;;;;;;;-2.93;100.00;103396.31;4986076;28;20881;-68
2023/02/28 06:54:23;;;;;;;12.37;6.97;;;;;;;-2.93;100.00;103391.31;4984173;28;20546;-66
2023/02/28 06:56:49;;;;;;;11.83;7.83;;;;;;;-2.90;100.00;103401.66;4989915;28;20195;-67
2023/02/28 06:59:14;;;;;;;13.37;8.00;;;;;;;-2.86;100.00;103401.28;4990015;28;20215;-69
2023/02/28 07:01:40;;;;;;;13.03;8.00;;;;;;;-2.82;100.00;103395.00;4991810;28;20195;-69
2023/02/28 07:04:07;;;;;;;12.33;8.03;;;;;;;-2.75;100.00;103402.50;4983953;28;20204;-68
2023/02/28 07:06:32;;;;;;;13.60;9.13;;;;;;;-2.68;100.00;103403.34;4986859;28;20206;-68
2023/02/28 07:08:58;;;;;;;15.77;9.90;;;;;;;-2.61;100.00;103402.44;4991358;28;20439;-68
2023/02/28 07:11:27;;;;;;;14.87;9.93;;;;;;;-2.54;100.00;103402.38;4982945;28;20184;-69
2023/02/28 07:13:56;;;;;;;13.93;9.97;;;;;;;-2.44;100.00;103397.69;4985781;28;20448;-68
2023/02/28 07:16:23;;;;;;;15.33;11.50;;;;;;;-2.26;100.00;103403.13;4989802;28;20475;-69
2023/02/28 07:18:49;;;;;;;16.80;11.07;;;;;;;-2.13;100.00;103403.75;4986909;28;20458;-68
2023/02/28 07:21:15;;;;;;;13.70;9.90;;;;;;;-2.01;100.00;103405.13;4988578;28;20478;-69
2023/02/28 07:23:41;;;;;;;17.40;10.00;;;;;;;-1.85;100.00;103400.13;4987862;28;20215;-69
2023/02/28 07:26:12;;;;;;;13.40;9.43;;;;;;;-1.70;100.00;103399.31;4988663;28;20478;-69
2023/02/28 07:28:38;;;;;;;15.50;8.70;;;;;;;-1.52;100.00;103402.19;4992296;28;20441;-68
2023/02/28 07:31:07;;;;;;;13.37;8.23;;;;;;;-1.32;100.00;103401.81;4988621;28;20435;-68
2023/02/28 07:33:33;;;;;;;12.43;8.90;;;;;;;-1.10;100.00;103400.88;4991781;28;20267;-69
2023/02/28 07:36:08;;;;;;;10.53;8.07;;;;;;;-0.85;100.00;103400.22;4981117;28;20934;-69
2023/02/28 07:38:35;;;;;;;10.83;7.77;;;;;;;-0.64;100.00;103398.31;4991580;28;20453;-69
2023/02/28 07:41:04;;;;;;;10.63;7.80;;;;;;;-0.46;100.00;103397.72;4987270;28;20214;-67
2023/02/28 07:43:30;;;;;;;12.37;8.10;;;;;;;-0.27;100.00;103398.00;4989347;28;20298;-69
2023/02/28 07:46:02;;;;;;;12.80;8.10;;;;;;;-0.12;100.00;103390.41;4991218;28;20322;-68
2023/02/28 07:48:27;;;;;;;13.03;7.83;;;;;;;0.01;100.00;103393.41;4992525;28;20575;-69
2023/02/28 07:50:56;;;;;;;10.47;7.47;;;;;;;0.18;100.00;103406.09;4989598;28;20195;-69
2023/02/28 07:53:22;;;;;;;11.93;8.13;;;;;;;0.34;100.00;103396.81;4984321;28;20227;-68
2023/02/28 07:55:47;;;;;;;13.37;7.87;;;;;;;0.56;100.00;103391.41;4989704;28;20204;-68
2023/02/28 07:58:13;;;;;;;9.30;7.77;;;;;;;0.73;100.00;103394.00;4989107;28;20196;-67
2023/02/28 08:00:38;;;;;;;11.03;7.80;;;;;;;0.97;100.00;103389.75;4989773;28;20199;-68
2023/02/28 08:03:04;;;;;;;12.73;7.80;;;;;;;1.10;100.00;103392.69;4986011;28;20215;-68
2023/02/28 08:05:30;;;;;;;13.63;7.93;;;;;;;1.28;100.00;103396.13;4985290;28;20208;-67
2023/02/28 08:07:56;;;;;;;10.53;7.33;;;;;;;1.49;100.00;103398.19;4989222;28;20195;-68
2023/02/28 08:10:23;;;;;;;12.63;7.83;;;;;;;1.69;100.00;103395.97;4988529;28;20189;-69
2023/02/28 08:12:49;;;;;;;10.80;6.83;;;;;;;1.87;100.00;103390.09;4989175;28;20219;-68
2023/02/28 08:15:14;;;;;;;11.97;7.13;;;;;;;1.90;100.00;103396.38;4986369;28;20180;-69
2023/02/28 08:17:40;;;;;;;10.17;6.90;;;;;;;2.08;100.00;103388.00;4987762;28;20557;-68
2023/02/28 08:20:06;;;;;;;10.60;6.07;;;;;;;2.38;100.00;103387.41;4989882;28;20543;-68
2023/02/28 08:22:31;;;;;;;8.90;7.33;;;;;;;2.57;100.00;103393.44;4987258;28;20297;-68
2023/02/28 08:24:57;;;;;;;10.13;6.33;;;;;;;2.79;100.00;103392.09;4991153;28;20685;-69
2023/02/28 08:27:22;;;;;;;8.47;6.73;;;;;;;3.01;100.00;103390.75;4987782;28;20335;-69
2023/02/28 08:29:48;;;;;;;8.57;6.57;;;;;;;3.16;100.00;103390.50;4987348;28;20281;-68
2023/02/28 08:32:13;;;;;;;9.27;6.57;;;;;;;3.26;100.00;103402.34;4989936;28;20729;-70
2023/02/28 08:34:40;;;;;;;11.37;7.73;;;;;;;3.53;100.00;103399.69;4988160;28;20198;-69
2023/02/28 08:37:05;;;;;;;10.07;6.63;;;;;;;3.70;100.00;103392.84;4987157;28;20226;-70
2023/02/28 08:39:34;;;;;;;8.50;5.97;;;;;;;4.03;100.00;103398.31;4990631;28;20647;-67
2023/02/28 08:41:59;;;;;;;8.63;5.73;;;;;;;4.15;100.00;103398.47;4989558;28;20235;-68
2023/02/28 08:44:25;;;;;;;8.47;5.87;;;;;;;4.43;100.00;103395.00;4990050;28;20720;-67
2023/02/28 08:46:50;;;;;;;7.47;5.50;;;;;;;4.50;100.00;103403.25;4990904;28;20198;-68
2023/02/28 08:49:16;;;;;;;7.23;5.53;;;;;;;4.60;100.00;103405.78;4988685;28;20195;-69
2023/02/28 08:51:41;;;;;;;7.20;5.53;;;;;;;4.78;100.00;103399.72;4984296;28;20187;-69
2023/02/28 08:54:08;;;;;;;6.93;5.70;;;;;;;4.96;100.00;103396.16;4990392;28;20249;-68
2023/02/28 08:56:33;;;;;;;7.97;5.30;;;;;;;5.13;100.00;103400.09;4988628;28;20191;-69
2023/02/28 08:58:59;;;;;;;9.03;5.60;;;;;;;5.55;100.00;103386.69;4986911;28;20257;-70
2023/02/28 09:01:29;;;;;;;7.37;4.67;;;;;;;5.99;100.00;103393.66;4987298;28;20192;-70
2023/02/28 09:03:55;;;;;;;8.23;4.50;;;;;;;6.30;100.00;103392.72;4987625;28;20926;-69
2023/02/28 09:06:24;;;;;;;8.77;4.77;;;;;;;6.67;100.00;103394.78;4991161;28;20671;-69
2023/02/28 09:08:50;;;;;;;5.20;4.30;;;;;;;7.18;100.00;103387.59;4984085;28;20728;-69
2023/02/28 09:11:15;;;;;;;5.87;4.83;;;;;;;7.18;100.00;103390.16;4984441;28;20249;-69
2023/02/28 09:13:41;;;;;;;5.83;4.63;;;;;;;7.60;100.00;103385.63;4986768;28;20219;-71
2023/02/28 09:16:11;;;;;;;8.63;5.03;;;;;;;8.18;100.00;103381.28;4989533;28;20206;-71
2023/02/28 09:18:37;;;;;;;6.97;4.53;;;;;;;10.13;88.66;103374.88;4990209;28;20200;-69
2023/02/28 09:21:05;;;;;;;5.77;4.03;;;;;;;13.74;56.36;103354.69;4985522;28;20223;-70
2023/02/28 09:23:30;;;;;;;5.40;4.88;;;;;;;16.64;46.15;103341.00;4984640;28;20212;-71
2023/02/28 09:25:56;;;;;;;5.40;4.60;;;;;;;18.48;39.72;103339.16;4989979;28;20216;-71
2023/02/28 09:28:22;;;;;;;4.95;4.45;;;;;;;19.65;37.23;103341.22;4992115;28;20247;-70
2023/02/28 09:30:51;;;;;;;5.72;4.15;;;;;;;19.97;34.57;103340.22;4986958;28;20191;-70
2023/02/28 09:33:20;;;;;;;4.75;4.05;;;;;;;19.53;34.46;103348.78;4988048;28;20211;-69
2023/02/28 09:35:46;;;;;;;5.65;4.68;;;;;;;21.06;32.97;103342.34;4983687;28;20204;-69
2023/02/28 09:38:12;;;;;;;4.40;4.00;;;;;;;22.90;30.27;103331.75;4984934;28;20648;-70
2023/02/28 09:40:47;;;;;;;4.50;4.10;;;;;;;23.49;29.17;103333.09;4992127;28;20191;-70
2023/02/28 09:43:15;;;;;;;5.10;4.07;;;;;;;24.33;28.03;103321.28;4989083;28;20229;-69
2023/02/28 09:45:45;;;;;;;5.72;3.95;;;;;;;24.55;27.68;103330.97;4993305;28;20223;-70
2023/02/28 09:48:28;;;;;;;4.60;3.90;;;;;;;24.02;27.48;103329.91;4962115;28;20247;-70
2023/02/28 09:51:03;;;;;;;4.22;3.83;;;;;;;23.63;27.21;103332.31;4989677;28;20200;-70
2023/02/28 09:53:33;;;;;;;4.20;3.80;;;;;;;23.63;26.91;103326.19;4991298;28;20238;-69
2023/02/28 09:56:04;;;;;;;4.40;3.65;;;;;;;25.55;26.23;103319.59;4989475;28;20218;-70
2023/02/28 09:58:41;;;;;;;5.15;3.78;;;;;;;25.82;25.70;103326.50;4991792;28;20191;-70
2023/02/28 10:01:30;;;;;;;4.30;3.50;;;;;;;26.05;24.83;103315.06;4986802;28;20446;-70
2023/02/28 10:04:00;;;;;;;4.18;2.60;;;;;;;25.86;23.47;103322.97;4984779;28;20650;-70
2023/02/28 10:06:30;;;;;;;3.22;2.92;;;;;;;25.72;24.20;103324.78;4985043;28;20216;-71
2023/02/28 10:09:09;;;;;;;3.03;2.20;;;;;;;26.92;22.34;103314.50;4990916;28;20203;-69
2023/02/28 10:11:37;;;;;;;3.53;2.50;;;;;;;26.63;21.99;103327.03;4984331;28;20188;-69
2023/02/28 10:14:11;;;;;;;3.03;2.72;;;;;;;26.85;21.87;103325.94;4984851;28;20535;-71
2023/02/28 10:16:46;;;;;;;2.97;2.65;;;;;;;27.88;21.12;103313.53;4988863;28;20200;-68
2023/02/28 10:19:17;;;;;;;2.72;2.53;;;;;;;27.34;21.65;103321.13;4986029;28;20205;-67
2023/02/28 10:22:01;;;;;;;3.28;2.80;;;;;;;27.73;21.86;103313.66;4991000;28;20281;-71
2023/02/28 10:24:32;;;;;;;3.78;2.63;;;;;;;27.82;21.23;103313.59;4988329;28;20195;-70
2023/02/28 10:27:11;;;;;;;3.05;2.45;;;;;;;26.98;21.86;103317.06;4991409;28;20223;-68
2023/02/28 10:29:40;;;;;;;3.38;2.58;;;;;;;27.35;20.58;103320.28;4988438;28;20210;-68
2023/02/28 10:32:05;;;;;;;4.68;3.03;;;;;;;28.14;20.52;103308.78;4992128;28;20207;-68
2023/02/28 10:34:31;;;;;;;3.20;2.50;;;;;;;27.56;20.91;103314.75;4991615;28;20552;-68
2023/02/28 10:37:07;;;;;;;3.47;2.10;;;;;;;27.17;19.71;103312.53;4993784;28;20638;-66
2023/02/28 10:39:41;;;;;;;1.90;1.67;;;;;;;27.24;19.67;103309.84;4989752;28;20199;-67
2023/02/28 10:42:21;;;;;;;1.85;1.65;;;;;;;28.12;19.37;103307.94;4993459;28;20219;-68
2023/02/28 10:44:46;;;;;;;1.50;1.20;;;;;;;28.31;19.20;103305.91;4991696;28;20226;-67
2023/02/28 10:47:17;;;;;;;1.50;1.40;;;;;;;28.18;19.52;103299.94;4991378;28;20196;-68
2023/02/28 10:49:52;;;;;;;1.25;1.15;;;;;;;28.29;18.57;103305.94;4988463;28;20195;-67
2023/02/28 10:52:37;;;;;;;2.03;1.27;;;;;;;28.95;18.46;103296.09;4987008;28;20223;-66
2023/02/28 10:55:23;;;;;;;2.15;1.30;;;;;;;28.87;18.43;103303.28;4988007;28;20196;-68
2023/02/28 10:57:49;;;;;;;2.70;1.42;;;;;;;28.51;17.79;103301.25;4990888;28;20187;-66
2023/02/28 11:00:25;;;;;;;1.83;1.45;;;;;;;29.28;17.98;103300.78;4991724;28;20207;-66
2023/02/28 11:02:51;;;;;;;1.20;1.10;;;;;;;29.30;18.86;103297.22;4988453;28;20276;-68
2023/02/28 11:05:33;;;;;;;1.73;1.20;;;;;;;26.48;19.09;103308.66;4991883;28;20704;-66
2023/02/28 11:08:19;;;;;;;1.70;1.33;;;;;;;28.86;18.94;103299.78;4988217;28;20195;-68
2023/02/28 11:10:54;;;;;;;1.25;1.05;;;;;;;29.24;18.42;103299.97;4991853;28;20299;-67
2023/02/28 11:13:24;;;;;;;2.42;1.40;;;;;;;28.91;19.48;103308.47;4992641;28;20704;-67
2023/02/28 11:15:56;;;;;;;2.80;1.38;;;;;;;29.94;18.10;103305.63;4991376;28;20615;-68
2023/02/28 11:18:38;;;;;;;2.45;1.35;;;;;;;29.72;18.00;103304.34;4988432;28;20200;-66
2023/02/28 11:21:05;;;;;;;2.03;1.63;;;;;;;30.53;17.46;103296.38;4982456;28;20231;-68
2023/02/28 11:23:34;;;;;;;2.75;1.52;;;;;;;30.92;17.53;103295.41;4986609;28;20259;-67
2023/02/28 11:26:04;;;;;;;1.40;1.30;;;;;;;29.85;17.36;103295.25;4989749;28;20224;-67
2023/02/28 11:28:35;;;;;;;1.52;1.40;;;;;;;30.07;18.00;103296.53;4991844;28;20720;-67